createdAt,value
2023-02-24T00:02:00.221Z,68.04
2023-02-24T00:04:29.587Z,68.39
2023-02-24T00:06:56.437Z,68.49
2023-02-24T00:09:28.786Z,68.59
2023-02-24T00:11:59.892Z,69.14
2023-02-24T00:14:33.265Z,69.27
2023-02-24T00:17:00.670Z,68.91
2023-02-24T00:19:32.727Z,69.40
2023-02-24T00:22:00.950Z,69.24
2023-02-24T00:24:28.291Z,69.34
2023-02-24T00:26:57.147Z,69.52
2023-02-24T00:29:25.073Z,69.46
2023-02-24T00:32:00.363Z,69.24
2023-02-24T00:34:33.561Z,69.56
2023-02-24T00:37:01.376Z,69.31
2023-02-24T00:39:35.227Z,69.13
2023-02-24T00:42:04.985Z,69.21
2023-02-24T00:44:40.233Z,69.07
2023-02-24T00:47:08.749Z,68.97
2023-02-24T00:49:42.426Z,69.20
2023-02-24T00:52:14.886Z,68.87
2023-02-24T00:54:45.901Z,68.47
2023-02-24T00:57:13.215Z,68.71
2023-02-24T00:59:40.595Z,68.95
2023-02-24T01:02:08.114Z,68.73
2023-02-24T01:04:35.422Z,68.87
2023-02-24T01:07:02.298Z,68.57
2023-02-24T01:09:31.992Z,68.28
2023-02-24T01:12:18.275Z,67.86
2023-02-24T01:14:47.862Z,67.95
2023-02-24T01:17:15.968Z,67.51
2023-02-24T01:19:44.309Z,67.20
2023-02-24T01:22:15.082Z,67.24
2023-02-24T01:24:43.915Z,66.72
2023-02-24T01:27:12.727Z,66.42
2023-02-24T01:29:39.900Z,66.42
2023-02-24T01:32:08.495Z,66.85
2023-02-24T01:34:35.350Z,66.76
2023-02-24T01:37:02.402Z,67.68
2023-02-24T01:39:29.096Z,67.92
2023-02-24T01:41:56.110Z,67.90
2023-02-24T01:44:24.070Z,67.86
2023-02-24T01:46:53.005Z,67.92
2023-02-24T01:49:37.909Z,67.81
2023-02-24T01:52:20.106Z,68.45
2023-02-24T01:54:55.108Z,68.37
2023-02-24T01:57:24.215Z,68.81
2023-02-24T01:59:54.035Z,68.41
2023-02-24T02:02:23.481Z,69.11
2023-02-24T02:04:58.854Z,69.24
2023-02-24T02:07:28.627Z,68.90
2023-02-24T02:10:00.344Z,69.08
2023-02-24T02:12:29.036Z,69.35
2023-02-24T02:14:59.574Z,69.28
2023-02-24T02:17:43.845Z,69.06
2023-02-24T02:20:38.573Z,69.42
2023-02-24T02:23:40.972Z,69.18
2023-02-24T02:26:21.196Z,69.57
2023-02-24T02:29:02.880Z,69.78
2023-02-24T02:31:55.453Z,69.52
2023-02-24T02:34:41.012Z,69.85
2023-02-24T02:37:20.198Z,69.88
2023-02-24T02:39:49.794Z,69.91
2023-02-24T02:42:30.189Z,70.29
2023-02-24T02:44:59.939Z,69.93
2023-02-24T02:47:35.705Z,70.15
2023-02-24T02:50:24.154Z,69.97
2023-02-24T02:53:24.629Z,69.94
2023-02-24T02:56:09.717Z,69.89
2023-02-24T02:58:40.572Z,70.11
2023-02-24T03:01:09.629Z,70.36
2023-02-24T03:03:41.121Z,70.13
2023-02-24T03:06:22.388Z,70.27
2023-02-24T03:08:59.404Z,70.17
2023-02-24T03:11:27.012Z,70.57
2023-02-24T03:13:57.613Z,70.51
2023-02-24T03:16:27.245Z,70.44
2023-02-24T03:18:59.881Z,70.65
2023-02-24T03:21:51.924Z,71.12
2023-02-24T03:24:19.164Z,70.87
2023-02-24T03:27:20.074Z,71.28
2023-02-24T03:29:58.473Z,71.43
2023-02-24T03:32:33.518Z,71.68
2023-02-24T03:35:19.655Z,71.73
2023-02-24T03:37:50.043Z,71.51
2023-02-24T03:40:18.281Z,71.89
2023-02-24T03:42:52.239Z,71.76
2023-02-24T03:45:22.570Z,71.92
2023-02-24T03:47:51.160Z,72.19
2023-02-24T03:50:22.000Z,72.41
2023-02-24T03:53:20.729Z,72.35
2023-02-24T03:56:11.000Z,72.28
2023-02-24T03:59:04.885Z,72.29
2023-02-24T04:01:46.495Z,72.16
2023-02-24T04:04:23.885Z,72.25
2023-02-24T04:07:26.464Z,72.35
2023-02-24T04:10:16.846Z,72.47
2023-02-24T04:13:02.170Z,72.59
2023-02-24T04:15:38.322Z,72.61
2023-02-24T04:18:18.731Z,72.51
2023-02-24T04:20:51.152Z,72.27
2023-02-24T04:23:21.864Z,72.63
2023-02-24T04:25:52.553Z,72.47
2023-02-24T04:28:22.641Z,73.12
2023-02-24T04:30:57.629Z,72.87
2023-02-24T04:33:24.592Z,73.21
2023-02-24T04:35:51.395Z,73.13
2023-02-24T04:38:18.754Z,73.11
2023-02-24T04:40:45.702Z,73.21
2023-02-24T04:43:13.109Z,72.89
2023-02-24T04:45:40.396Z,73.05
2023-02-24T04:48:12.998Z,72.94
2023-02-24T04:50:42.307Z,72.91
2023-02-24T04:53:11.803Z,73.12
2023-02-24T04:55:45.425Z,73.42
2023-02-24T04:58:19.138Z,73.30
2023-02-24T05:00:48.971Z,73.65
2023-02-24T05:03:17.294Z,72.99
2023-02-24T05:06:00.359Z,73.12
2023-02-24T05:08:29.003Z,72.72
2023-02-24T05:11:00.872Z,73.07
2023-02-24T05:13:31.774Z,72.89
2023-02-24T05:16:04.254Z,72.91
2023-02-24T05:18:36.982Z,72.78
2023-02-24T05:21:31.764Z,73.22
2023-02-24T05:23:59.513Z,72.88
2023-02-24T05:26:27.071Z,72.85
2023-02-24T05:28:56.683Z,72.86
2023-02-24T05:31:27.172Z,72.66
2023-02-24T05:34:01.464Z,72.58
2023-02-24T05:36:35.125Z,72.83
2023-02-24T05:39:12.080Z,72.72
2023-02-24T05:41:41.848Z,72.67
2023-02-24T05:44:12.670Z,72.61
2023-02-24T05:46:42.395Z,72.83
2023-02-24T05:49:15.577Z,72.86
2023-02-24T05:51:54.449Z,73.22
2023-02-24T05:54:29.873Z,72.74
2023-02-24T05:57:02.346Z,73.04
2023-02-24T05:59:34.906Z,73.09
2023-02-24T06:02:09.177Z,72.69
2023-02-24T06:04:41.122Z,72.76
2023-02-24T06:07:20.012Z,73.08
2023-02-24T06:09:50.426Z,72.92
2023-02-24T06:12:18.352Z,72.93
2023-02-24T06:14:45.228Z,73.44
2023-02-24T06:17:12.154Z,73.51
2023-02-24T06:19:41.238Z,74.06
2023-02-24T06:22:11.758Z,75.50
2023-02-24T06:24:39.381Z,76.38
2023-02-24T06:27:10.463Z,76.82
2023-02-24T06:29:37.904Z,77.24
2023-02-24T06:32:11.303Z,78.33
2023-02-24T06:34:39.102Z,78.49
2023-02-24T06:37:07.407Z,78.87
2023-02-24T06:39:36.615Z,80.09
2023-02-24T06:42:05.131Z,79.95
2023-02-24T06:44:32.868Z,80.25
2023-02-24T06:47:00.131Z,81.57
2023-02-24T06:49:27.602Z,82.44
2023-02-24T06:51:55.165Z,83.20
2023-02-24T06:54:22.829Z,84.02
2023-02-24T06:56:50.026Z,85.97
2023-02-24T06:59:21.737Z,86.27
2023-02-24T07:01:49.422Z,87.76
2023-02-24T07:04:17.896Z,88.90
2023-02-24T07:06:49.355Z,89.05
2023-02-24T07:09:18.768Z,90.19
2023-02-24T07:11:48.448Z,89.95
2023-02-24T07:14:15.433Z,91.62
2023-02-24T07:16:45.520Z,90.76
2023-02-24T07:19:15.914Z,90.76
2023-02-24T07:21:46.736Z,91.70
2023-02-24T07:24:20.324Z,91.13
2023-02-24T07:26:51.814Z,92.66
2023-02-24T07:29:19.156Z,94.07
2023-02-24T07:31:46.096Z,93.72
2023-02-24T07:34:15.072Z,93.54
2023-02-24T07:36:49.327Z,94.05
2023-02-24T07:39:17.154Z,94.07
2023-02-24T07:41:49.752Z,93.97
2023-02-24T07:44:18.934Z,93.95
2023-02-24T07:46:48.183Z,93.49
2023-02-24T07:49:19.810Z,92.43
2023-02-24T07:51:52.471Z,90.39
2023-02-24T07:54:21.516Z,92.41
2023-02-24T07:56:56.598Z,91.87
2023-02-24T07:59:25.935Z,91.84
2023-02-24T08:01:55.777Z,92.01
2023-02-24T08:04:26.928Z,92.39
2023-02-24T08:06:59.120Z,92.46
2023-02-24T08:09:45.465Z,92.15
2023-02-24T08:12:18.529Z,91.86
2023-02-24T08:14:50.901Z,92.01
2023-02-24T08:17:20.323Z,92.06
2023-02-24T08:19:49.192Z,92.23
2023-02-24T08:22:19.848Z,92.23
2023-02-24T08:24:50.239Z,92.92
2023-02-24T08:27:20.269Z,92.41
2023-02-24T08:29:59.929Z,91.51
2023-02-24T08:32:52.596Z,92.25
2023-02-24T08:35:23.027Z,91.59
2023-02-24T08:37:54.216Z,91.75
2023-02-24T08:40:32.970Z,91.85
2023-02-24T08:43:19.299Z,92.36
2023-02-24T08:45:59.412Z,91.99
2023-02-24T08:48:37.857Z,92.25
2023-02-24T08:51:04.701Z,91.75
2023-02-24T08:53:31.624Z,91.82
2023-02-24T08:56:00.331Z,92.29
2023-02-24T08:58:27.302Z,92.44
2023-02-24T09:00:57.010Z,92.92
2023-02-24T09:03:29.195Z,92.82
2023-02-24T09:06:05.078Z,92.79
2023-02-24T09:08:40.441Z,92.39
2023-02-24T09:11:25.255Z,92.47
2023-02-24T09:13:51.950Z,93.33
2023-02-24T09:16:20.608Z,93.49
2023-02-24T09:19:07.447Z,93.82
2023-02-24T09:21:49.184Z,93.33
2023-02-24T09:24:27.050Z,92.41
2023-02-24T09:27:00.245Z,92.87
2023-02-24T09:29:49.280Z,93.04
2023-02-24T09:32:16.560Z,92.93
2023-02-24T09:34:44.175Z,93.75
2023-02-24T09:37:27.277Z,93.70
2023-02-24T09:39:54.686Z,93.33
2023-02-24T09:42:46.632Z,92.47
2023-02-24T09:45:33.062Z,93.29
2023-02-24T09:48:11.011Z,93.08
2023-02-24T09:51:03.089Z,92.80
2023-02-24T09:53:52.641Z,92.66
2023-02-24T09:56:31.143Z,92.29
2023-02-24T09:59:12.724Z,93.06
2023-02-24T10:02:12.172Z,93.02
2023-02-24T10:04:49.315Z,93.31
2023-02-24T10:07:24.409Z,93.27
2023-02-24T10:10:11.201Z,93.01
2023-02-24T10:12:40.367Z,93.53
2023-02-24T10:15:21.172Z,94.23
2023-02-24T10:17:58.343Z,94.01
2023-02-24T10:20:40.572Z,94.28
2023-02-24T10:23:32.972Z,94.59
2023-02-24T10:26:09.246Z,93.67
2023-02-24T10:29:29.530Z,93.56
2023-02-24T10:32:17.090Z,93.57
2023-02-24T10:34:44.702Z,92.86
2023-02-24T10:37:27.563Z,92.69
2023-02-24T10:40:00.358Z,93.10
2023-02-24T10:42:32.089Z,92.60
2023-02-24T10:45:17.266Z,92.16
2023-02-24T10:47:58.576Z,92.57
2023-02-24T10:50:55.457Z,92.39
2023-02-24T10:53:28.728Z,92.75
2023-02-24T10:56:17.531Z,92.23
2023-02-24T10:58:53.563Z,91.75
2023-02-24T11:01:43.817Z,92.73
2023-02-24T11:04:28.663Z,91.19
2023-02-24T11:07:09.932Z,92.19
2023-02-24T11:09:52.169Z,91.95
2023-02-24T11:12:45.276Z,90.86
2023-02-24T11:15:40.225Z,91.40
2023-02-24T11:18:08.796Z,90.63
2023-02-24T11:20:49.776Z,91.21
2023-02-24T11:23:22.661Z,90.41
2023-02-24T11:25:58.973Z,90.25
2023-02-24T11:28:28.622Z,90.26
2023-02-24T11:31:28.742Z,90.78
2023-02-24T11:34:07.856Z,90.53
2023-02-24T11:36:43.849Z,90.32
2023-02-24T11:39:45.640Z,90.49
2023-02-24T11:42:16.785Z,90.41
2023-02-24T11:45:12.247Z,90.80
2023-02-24T11:47:45.296Z,90.84
2023-02-24T11:50:30.917Z,90.12
2023-02-24T11:53:03.600Z,89.91
2023-02-24T11:55:46.930Z,90.07
2023-02-24T11:58:46.557Z,90.64
2023-02-24T12:01:51.511Z,90.18
2023-02-24T12:04:37.842Z,90.14
2023-02-24T12:07:12.999Z,89.96
2023-02-24T12:09:58.298Z,89.74
2023-02-24T12:12:57.233Z,89.64
2023-02-24T12:15:46.833Z,89.98
2023-02-24T12:18:17.931Z,90.06
2023-02-24T12:20:51.106Z,89.74
2023-02-24T12:23:31.276Z,90.33
2023-02-24T12:26:42.752Z,90.39
2023-02-24T12:29:21.265Z,90.76
2023-02-24T12:32:16.937Z,90.12
2023-02-24T12:34:50.405Z,89.84
2023-02-24T12:37:42.581Z,89.98
2023-02-24T12:40:28.013Z,90.91
2023-02-24T12:43:05.383Z,90.69
2023-02-24T12:46:17.241Z,90.93
2023-02-24T12:49:19.172Z,91.30
2023-02-24T12:52:33.538Z,91.77
2023-02-24T12:55:03.122Z,91.87
2023-02-24T12:58:04.164Z,92.37
2023-02-24T13:00:50.658Z,92.11
2023-02-24T13:03:47.807Z,92.22
2023-02-24T13:06:25.517Z,92.11
2023-02-24T13:08:59.663Z,91.89
2023-02-24T13:11:37.569Z,91.84
2023-02-24T13:14:27.501Z,91.47
2023-02-24T13:17:09.341Z,91.98
2023-02-24T13:19:36.941Z,91.94
2023-02-24T13:22:08.800Z,92.31
2023-02-24T13:24:35.806Z,91.65
2023-02-24T13:27:21.536Z,91.80
2023-02-24T13:29:51.108Z,92.13
2023-02-24T13:32:32.106Z,92.26
2023-02-24T13:35:03.772Z,91.92
2023-02-24T13:37:36.791Z,91.65
2023-02-24T13:40:16.591Z,92.02
2023-02-24T13:43:01.379Z,92.04
2023-02-24T13:45:31.624Z,91.85
2023-02-24T13:48:07.248Z,91.92
2023-02-24T13:51:05.139Z,91.86
2023-02-24T13:53:31.907Z,92.32
2023-02-24T13:56:23.196Z,92.24
2023-02-24T13:59:19.431Z,92.29
2023-02-24T14:01:50.173Z,92.50
2023-02-24T14:04:35.144Z,93.05
2023-02-24T14:07:08.963Z,92.60
2023-02-24T14:09:48.785Z,93.28
2023-02-24T14:12:36.021Z,93.63
2023-02-24T14:15:04.422Z,93.91
2023-02-24T14:17:37.715Z,93.65
2023-02-24T14:20:06.693Z,94.10
2023-02-24T14:22:34.746Z,94.32
2023-02-24T14:25:03.388Z,94.41
2023-02-24T14:27:31.126Z,94.89
2023-02-24T14:29:58.044Z,94.77
2023-02-24T14:32:27.520Z,94.72
2023-02-24T14:34:58.347Z,95.25
2023-02-24T14:37:29.058Z,95.26
2023-02-24T14:39:58.688Z,95.45
2023-02-24T14:42:27.099Z,96.23
2023-02-24T14:44:56.769Z,96.13
2023-02-24T14:47:26.437Z,96.37
2023-02-24T14:49:59.802Z,97.06
2023-02-24T14:52:44.639Z,97.56
2023-02-24T14:55:12.999Z,98.21
2023-02-24T14:57:48.458Z,98.86
2023-02-24T15:00:23.932Z,99.73
2023-02-24T15:02:57.025Z,99.72
2023-02-24T15:05:24.283Z,100.00
2023-02-24T15:07:51.930Z,100.00
2023-02-24T15:10:29.004Z,99.79
2023-02-24T15:13:12.219Z,99.94
2023-02-24T15:15:39.532Z,100.00
2023-02-24T15:18:20.679Z,100.00
2023-02-24T15:20:47.487Z,100.00
2023-02-24T15:23:29.164Z,100.00
2023-02-24T15:25:56.039Z,100.00
2023-02-24T15:28:33.300Z,100.00
2023-02-24T15:31:11.075Z,100.00
2023-02-24T15:33:41.626Z,100.00
2023-02-24T15:36:17.956Z,100.00
2023-02-24T15:38:46.285Z,100.00
2023-02-24T15:41:14.290Z,100.00
2023-02-24T15:43:45.749Z,100.00
2023-02-24T15:46:37.161Z,100.00
2023-02-24T15:49:05.563Z,100.00
2023-02-24T15:51:47.661Z,100.00
2023-02-24T15:54:20.574Z,100.00
2023-02-24T15:56:48.799Z,100.00
2023-02-24T15:59:18.286Z,100.00
2023-02-24T16:01:45.174Z,100.00
2023-02-24T16:04:12.065Z,100.00
2023-02-24T16:06:43.680Z,100.00
2023-02-24T16:09:15.373Z,100.00
2023-02-24T16:11:45.960Z,100.00
2023-02-24T16:14:16.657Z,100.00
2023-02-24T16:16:44.341Z,100.00
2023-02-24T16:19:14.373Z,100.00
2023-02-24T16:21:41.301Z,100.00
2023-02-24T16:24:08.321Z,100.00
2023-02-24T16:26:40.002Z,100.00
2023-02-24T16:29:11.702Z,100.00
2023-02-24T16:31:39.629Z,100.00
2023-02-24T16:34:07.621Z,100.00
2023-02-24T16:36:35.766Z,100.00
2023-02-24T16:39:04.849Z,100.00
2023-02-24T16:41:31.693Z,100.00
2023-02-24T16:43:58.452Z,100.00
2023-02-24T16:46:28.396Z,100.00
2023-02-24T16:48:55.286Z,100.00
2023-02-24T16:51:22.439Z,100.00
2023-02-24T16:53:49.177Z,100.00
2023-02-24T16:56:16.240Z,100.00
2023-02-24T16:58:43.094Z,100.00
2023-02-24T17:01:16.394Z,100.00
2023-02-24T17:03:46.093Z,100.00
2023-02-24T17:06:12.957Z,100.00
2023-02-24T17:08:41.642Z,100.00
2023-02-24T17:11:13.463Z,100.00
2023-02-24T17:13:40.552Z,100.00
2023-02-24T17:16:07.910Z,100.00
2023-02-24T17:18:34.828Z,100.00
2023-02-24T17:21:02.469Z,100.00
2023-02-24T17:23:29.305Z,100.00
2023-02-24T17:25:59.081Z,100.00
2023-02-24T17:28:26.846Z,100.00
2023-02-24T17:30:53.911Z,100.00
2023-02-24T17:33:20.872Z,100.00
2023-02-24T17:35:48.534Z,100.00
2023-02-24T17:38:17.358Z,100.00
2023-02-24T17:40:45.786Z,100.00
2023-02-24T17:43:13.088Z,100.00
2023-02-24T17:45:45.090Z,100.00
2023-02-24T17:48:13.398Z,100.00
2023-02-24T17:50:47.314Z,100.00
2023-02-24T17:53:14.961Z,100.00
2023-02-24T17:55:49.913Z,100.00
2023-02-24T17:58:26.693Z,100.00
2023-02-24T18:00:53.519Z,100.00
2023-02-24T18:03:20.771Z,100.00
2023-02-24T18:05:47.691Z,100.00
2023-02-24T18:08:14.666Z,100.00
2023-02-24T18:10:41.457Z,100.00
2023-02-24T18:13:08.187Z,100.00
2023-02-24T18:15:35.058Z,100.00
2023-02-24T18:18:01.808Z,100.00
2023-02-24T18:20:29.745Z,100.00
2023-02-24T18:22:57.054Z,100.00
2023-02-24T18:25:23.763Z,100.00
2023-02-24T18:27:50.550Z,100.00
2023-02-24T18:30:18.643Z,100.00
2023-02-24T18:32:45.873Z,100.00
2023-02-24T18:35:13.390Z,100.00
2023-02-24T18:37:40.193Z,100.00
2023-02-24T18:40:07.507Z,100.00
2023-02-24T18:42:34.246Z,100.00
2023-02-24T18:45:01.060Z,100.00
2023-02-24T18:47:28.369Z,100.00
2023-02-24T18:49:55.159Z,100.00
2023-02-24T18:52:22.054Z,100.00
2023-02-24T18:54:49.692Z,100.00
2023-02-24T18:57:16.501Z,100.00
2023-02-24T18:59:44.330Z,100.00
2023-02-24T19:02:11.476Z,100.00
2023-02-24T19:04:38.283Z,100.00
2023-02-24T19:07:05.410Z,100.00
2023-02-24T19:09:32.192Z,100.00
2023-02-24T19:11:58.940Z,100.00
2023-02-24T19:14:25.964Z,100.00
2023-02-24T19:16:52.866Z,100.00
2023-02-24T19:19:19.812Z,100.00
2023-02-24T19:21:48.278Z,100.00
2023-02-24T19:24:16.493Z,100.00
2023-02-24T19:26:45.767Z,100.00
2023-02-24T19:29:13.157Z,100.00
2023-02-24T19:31:40.562Z,100.00
2023-02-24T19:34:11.698Z,100.00
2023-02-24T19:36:38.709Z,100.00
2023-02-24T19:39:08.873Z,100.00
2023-02-24T19:41:36.899Z,100.00
2023-02-24T19:44:03.787Z,100.00
2023-02-24T19:46:34.303Z,100.00
2023-02-24T19:49:01.426Z,100.00
2023-02-24T19:51:28.451Z,100.00
2023-02-24T19:53:57.207Z,100.00
2023-02-24T19:56:25.957Z,100.00
2023-02-24T19:58:54.894Z,100.00
2023-02-24T20:01:23.003Z,100.00
2023-02-24T20:03:50.448Z,100.00
2023-02-24T20:06:39.028Z,100.00
2023-02-24T20:09:08.253Z,100.00
2023-02-24T20:11:37.080Z,100.00
2023-02-24T20:14:04.492Z,100.00
2023-02-24T20:16:34.936Z,100.00
2023-02-24T20:19:01.862Z,100.00
2023-02-24T20:21:29.201Z,100.00
2023-02-24T20:24:01.958Z,100.00
2023-02-24T20:26:29.861Z,100.00
2023-02-24T20:28:57.412Z,100.00
2023-02-24T20:31:24.406Z,100.00
2023-02-24T20:33:51.574Z,100.00
2023-02-24T20:36:21.950Z,100.00
2023-02-24T20:38:49.154Z,100.00
2023-02-24T20:41:16.866Z,100.00
2023-02-24T20:43:43.684Z,100.00
2023-02-24T20:46:27.287Z,100.00
2023-02-24T20:49:17.447Z,100.00
2023-02-24T20:51:44.540Z,100.00
2023-02-24T20:54:12.511Z,100.00
2023-02-24T20:56:41.379Z,100.00
2023-02-24T20:59:17.391Z,100.00
2023-02-24T21:01:47.355Z,100.00
2023-02-24T21:04:16.226Z,100.00
2023-02-24T21:06:43.082Z,100.00
2023-02-24T21:09:12.010Z,100.00
2023-02-24T21:11:39.148Z,100.00
2023-02-24T21:14:07.067Z,100.00
2023-02-24T21:16:37.220Z,100.00
2023-02-24T21:19:04.141Z,100.00
2023-02-24T21:21:30.948Z,100.00
2023-02-24T21:23:57.743Z,100.00
2023-02-24T21:26:26.989Z,100.00
2023-02-24T21:28:57.440Z,100.00
2023-02-24T21:31:24.867Z,100.00
2023-02-24T21:33:52.887Z,100.00
2023-02-24T21:36:21.582Z,100.00
2023-02-24T21:38:49.049Z,100.00
2023-02-24T21:41:16.161Z,100.00
2023-02-24T21:43:44.404Z,100.00
2023-02-24T21:46:13.567Z,100.00
2023-02-24T21:48:41.785Z,100.00
2023-02-24T21:51:11.147Z,100.00
2023-02-24T21:53:39.659Z,100.00
2023-02-24T21:56:18.669Z,100.00
2023-02-24T21:58:48.353Z,100.00
2023-02-24T22:01:24.377Z,100.00
2023-02-24T22:03:55.463Z,100.00
2023-02-24T22:06:22.783Z,100.00
2023-02-24T22:08:49.841Z,100.00
2023-02-24T22:11:18.097Z,100.00
2023-02-24T22:13:46.707Z,100.00
2023-02-24T22:16:18.192Z,100.00
2023-02-24T22:18:46.505Z,100.00
2023-02-24T22:21:17.791Z,100.00
2023-02-24T22:23:46.432Z,100.00
2023-02-24T22:26:14.807Z,100.00
2023-02-24T22:28:42.979Z,100.00
2023-02-24T22:31:12.112Z,100.00
2023-02-24T22:33:41.221Z,100.00
2023-02-24T22:36:10.951Z,100.00
2023-02-24T22:38:39.125Z,100.00
2023-02-24T22:41:10.863Z,100.00
2023-02-24T22:43:37.684Z,100.00
2023-02-24T22:46:10.808Z,100.00
2023-02-24T22:48:38.029Z,100.00
2023-02-24T22:51:07.465Z,100.00
2023-02-24T22:53:38.139Z,100.00
2023-02-24T22:56:06.312Z,100.00
2023-02-24T22:58:33.388Z,100.00
2023-02-24T23:01:00.360Z,100.00
2023-02-24T23:03:31.020Z,100.00
2023-02-24T23:05:59.438Z,100.00
2023-02-24T23:08:31.676Z,100.00
2023-02-24T23:11:07.817Z,100.00
2023-02-24T23:13:38.288Z,100.00
2023-02-24T23:16:07.648Z,100.00
2023-02-24T23:18:36.892Z,100.00
2023-02-24T23:21:08.096Z,100.00
2023-02-24T23:23:35.855Z,100.00
2023-02-24T23:26:03.709Z,100.00
2023-02-24T23:28:30.712Z,100.00
2023-02-24T23:30:57.796Z,100.00
2023-02-24T23:33:24.868Z,100.00
2023-02-24T23:35:51.658Z,100.00
2023-02-24T23:38:18.382Z,100.00
2023-02-24T23:40:50.566Z,100.00
2023-02-24T23:43:18.440Z,100.00
2023-02-24T23:45:45.532Z,100.00
2023-02-24T23:48:14.338Z,100.00
2023-02-24T23:50:42.909Z,100.00
2023-02-24T23:53:09.942Z,100.00
2023-02-24T23:55:40.129Z,100.00
2023-02-24T23:58:07.585Z,100.00
